Tiempo atmosférico en la estación meteorológica de Alcázar Del Rey, Cuenca (875 m.)



Fecha
DESCASC
Temp. máxima en grados centígrados (hora)
DESCASC
Temp. mínima en grados centígrados (hora)
DESCASC
Temp. media en grados centígrados
DESCASC
Racha de viento máxima en m/sg (hora)
DESCASC
Velocidad máxima media en intervalos de 10 minutos(hora)
DESCASC
Precipitaciones diarias en mm
DESCASC
Precipitaciones de 00:00 a 06:00 en mm
DESCASC
Precipitaciones de 06:00 a 12:00 en mm
DESCASC
Precipitaciones de 12:00 a 18:00 en mm
DESCASC
Precipitaciones de 18:00 a 24:00 en mm
DESCASC
23-06-2019 33.6 (18:50) 16.4 (07:00) 25 10.28 (23:20) 5.28 (04:10) 0 0 0 0 0
22-06-2019 30.5 (16:40) 13.6 (06:40) 22.1 10.56 (08:40) 5.56 (10:10) 0 0 0 0 0
21-06-2019 29.5 (18:30) 15.3 (07:40) 22.4 10.83 (16:50) 4.72 (15:40) 0 0 0 0 0
20-06-2019 27.6 (18:20) 11.8 (00:00) 19.7 8.33 (15:00) 3.89 (14:10) 0 0 0 0 0
19-06-2019 28.3 (17:00) 13.5 (00:00) 20.9 11.67 (17:20) 5.28 (18:20) 0 0 0 0 0
18-06-2019 29.9 (17:10) 15.3 (00:00) 22.6 12.78 (18:20) 6.11 (15:50) 0 0 0 0 0
17-06-2019 30.1 (18:20) 12.5 (00:00) 21.3 10 (16:00) 4.17 (17:00) 0 0 0 0 0
16-06-2019 28.4 (16:40) 7.4 (00:00) 17.9 11.11 (10:40) 5.56 (10:40) 0 0 0 0 0
15-06-2019 25.4 (18:20) 8.7 (00:00) 17 13.89 (17:40) 3.89 (14:30) 0 0 0 0 0
14-06-2019 25.4 (16:40) 13.3 (00:00) 19.3 11.39 (12:10) 5.56 (17:50) 0 0 0 0 0
13-06-2019 25.5 (19:20) 11.6 (00:00) 18.6 13.06 (09:40) 7.5 (09:40) 0 0 0 0 0
12-06-2019 24.1 (19:00) 3.8 (00:00) 14 11.67 (23:30) 6.11 (23:30) 0 0 0 0 0
11-06-2019 19 (16:30) 7.9 (00:00) 13.5 11.94 (13:30) 7.22 (13:20) 0 0 0 0 0
10-06-2019 25.9 (17:30) 10.5 (00:00) 18.2 10.83 (19:10) 6.11 (19:10) 0 0 0 0 0
09-06-2019 27.3 (17:30) 12.4 (00:00) 19.8 11.67 (17:30) 5.56 (01:20) 0 0 0 0 0
08-06-2019 25.7 (16:20) 7 (00:00) 16.4 16.94 (10:40) 8.89 (11:40) 0 0 0 0 0
07-06-2019 21.5 (18:20) 10.2 (00:00) 15.8 10.83 (06:50) 6.39 (06:50) 0 0 0 0 0
06-06-2019 23.9 (18:40) 7.3 (00:00) 15.6 12.22 (19:30) 5.28 (19:30) 0 0 0 0 0
05-06-2019 20.7 (17:50) 10.6 (00:00) 15.7 15 (12:50) 9.17 (12:50) 0.8 0.8 0 0 0
04-06-2019 29.2 (16:40) 13.2 (00:00) 21.2 13.61 (16:00) 6.39 (19:00) 0 0 0 0 0
03-06-2019 32.8 (15:50) 16.1 (00:00) 24.4 10.83 (17:00) 5.56 (16:50) 0 0 0 0 0
02-06-2019 33 (17:10) 13.5 (00:00) 23.3 9.72 (01:50) 5.28 (03:50) 0 0 0 0 0
01-06-2019 31.7 (18:00) 11.7 (00:00) 21.7 9.72 (00:40) 5.28 (00:40) 0 0 0 0 0
31-05-2019 30 (19:10) 9.3 (00:00) 19.7 8.61 (01:10) 4.44 (01:10) 0 0 0 0 0
30-05-2019 27.8 (18:00) 7 (00:00) 17.4 7.22 (17:10) 3.89 (23:20) 0 0 0 0 0
29-05-2019 23 (18:40) 6.9 (00:00) 15 13.33 (10:00) 8.33 (10:00) 0 0 0 0 0
28-05-2019 23.6 (19:00) 9.3 (00:00) 16.5 10.28 (21:10) 5.83 (21:00) 0 0 0 0 0
27-05-2019 27.3 (17:20) 7.2 (00:00) 17.2 11.39 (14:40) 5.28 (18:10) 0 0 0 0 0

Gráficas

Temp. máximas Temp. mínimas Temp. medias Precipitaciones Rachas de viento máximas Velocidades máximas media en intervalos de 10 minutos

Datos horarios

Fecha y hora oficial Temperatura (ºC) Velocidad del viento (km/h) Dirección del viento Racha (km/h) Dirección de racha Precipitación (mm) Presión (hPa) Tendencia (hPa) Humedad (%)
2019-06-25 23:00:00 27.3 14 Sudeste 34 Sudeste 0 -- -- 46
2019-06-25 22:00:00 29.8 18 Sudeste 34 Sudeste 0 -- -- 39
2019-06-25 21:00:00 33.1 4 Sudoeste 22 Sur 0 -- -- 27
2019-06-25 20:00:00 34 7 Sur 24 Sudeste 0 -- -- 26
2019-06-25 19:00:00 34.4 6 Sur 26 Sur 0 -- -- 26
2019-06-25 18:00:00 34.3 10 Sudoeste 27 Sudoeste 0 -- -- 26
2019-06-25 17:00:00 33.9 13 Sur 32 Sur 0 -- -- 24
2019-06-25 16:00:00 33.5 10 Sur 30 Sur 0 -- -- 26
2019-06-25 15:00:00 32.5 11 Sur 26 Sur 0 -- -- 27
2019-06-25 14:00:00 31.5 9 Sur 21 Sur 0 -- -- 30
2019-06-25 13:00:00 30.2 3 Este 18 Sudeste 0 -- -- 32
2019-06-25 12:00:00 28.6 5 Sur 17 Sur 0 -- -- 33
2019-06-25 11:00:00 26.1 8 Sur 18 Sur 0 -- -- 39
2019-06-25 10:00:00 23.9 5 Sudeste 16 Sudeste 0 -- -- 45
2019-06-25 09:00:00 20.9 9 Sudeste 15 Sudeste 0 -- -- 53
2019-06-25 08:00:00 17.4 0 Calma 4 Sudeste 0 -- -- 60
2019-06-25 07:00:00 14.9 0 Calma 4 Oeste 0 -- -- 64
2019-06-25 06:00:00 15.7 0 Calma 5 Oeste 0 -- -- 60
2019-06-25 05:00:00 17.6 2 Sudoeste 8 Sudoeste 0 -- -- 56
2019-06-25 04:00:00 18.7 3 Sudeste 9 Sur 0 -- -- 53
2019-06-25 03:00:00 19.9 2 Sur 13 Sur 0 -- -- 52
2019-06-25 02:00:00 21.5 5 Sudeste 18 Sur 0 -- -- 50
2019-06-25 01:00:00 22 3 Norte 27 Sudeste 0 -- -- 47
2019-06-25 00:00:00 23.4 9 Sudeste 20 Sudeste 0 -- -- 40
2019-06-24 23:00:00 24.9 7 Sur 17 Sur 0 -- -- 35
2019-06-24 22:00:00 27 7 Sur 23 Sudoeste 0 -- -- 32
2019-06-24 21:00:00 29.2 9 Sudoeste 24 Sudoeste 0 -- -- 29
2019-06-24 20:00:00 29.7 11 Sudoeste 29 Sur 0 -- -- 28
2019-06-24 19:00:00 30.8 12 Sur 28 Sur 0 -- -- 27
2019-06-24 18:00:00 31.8 10 Sur 30 Sudeste 0 -- -- 27
2019-06-24 17:00:00 31.8 15 Sur 30 Sur 0 -- -- 27
2019-06-24 16:00:00 30.6 8 Sur 20 Sudoeste 0 -- -- 29
2019-06-24 15:00:00 29.9 9 Sudoeste 23 Sur 0 -- -- 28
2019-06-24 14:00:00 29 11 Sur 22 Sur 0 -- -- 30
2019-06-24 13:00:00 27.5 10 Sur 23 Sudeste 0 -- -- 30
2019-06-24 12:00:00 25.7 14 Sur 26 Sudeste 0 -- -- 33
2019-06-24 11:00:00 23.5 17 Sur 32 Sudeste 0 -- -- 36
2019-06-24 10:00:00 22.3 17 Sudeste 30 Sudeste 0 -- -- 38
2019-06-24 09:00:00 21 13 Sudeste 27 Sudeste 0 -- -- 42
2019-06-24 08:00:00 18.1 8 Sur 24 Sudeste 0 -- -- 51
2019-06-24 07:00:00 17.1 15 Sudeste 27 Sudeste 0 -- -- 52
2019-06-24 06:00:00 17.5 12 Sudeste 30 Sudeste 0 -- -- 50
2019-06-24 05:00:00 18.3 19 Sudeste 43 Este 0 -- -- 47
2019-06-24 04:00:00 19 19 Sudeste 49 Sudeste 0 -- -- 45
2019-06-24 03:00:00 19.7 28 Sudeste 50 Sudeste 0 -- -- 43
2019-06-24 02:00:00 21.1 28 Sudeste 48 Sudeste 0 -- -- 37
2019-06-24 01:00:00 22.1 25 Sudeste 48 Sudeste 0 -- -- 30
2019-06-24 00:00:00 23.9 18 Sudeste 37 Sudeste 0 -- -- 32
2019-06-23 23:00:00 26 17 Sudeste 30 Sudeste 0 -- -- 32
2019-06-23 22:00:00 27.4 12 Sudeste 30 Sur 0 -- -- 32
2019-06-23 21:00:00 30 2 Sudoeste 10 Oeste 0 -- -- 27
2019-06-23 20:00:00 31.4 5 Oeste 17 Sur 0 -- -- 25
2019-06-23 19:00:00 33.2 9 Sudoeste 28 Sudoeste 0 -- -- 23
2019-06-23 18:00:00 32.4 9 Sudoeste 27 Sudoeste 0 -- -- 24
2019-06-23 17:00:00 32.1 11 Sur 25 Oeste 0 -- -- 24
2019-06-23 16:00:00 31.5 14 Sudeste 32 Sur 0 -- -- 25
2019-06-23 15:00:00 31.3 14 Sur 31 Sur 0 -- -- 24
2019-06-23 14:00:00 30.5 14 Sur 35 Sudeste 0 -- -- 25
2019-06-23 13:00:00 29.1 10 Sudoeste 26 Sur 0 -- -- 27
2019-06-23 12:00:00 27.9 14 Sur 34 Sur 0 -- -- 28
2019-06-23 11:00:00 25.7 15 Sudeste 26 Sudeste 0 -- -- 36
2019-06-23 10:00:00 22.9 15 Sudeste 27 Sudeste 0 -- -- 44
2019-06-23 09:00:00 20.2 18 Sudeste 29 Sudeste 0 -- -- 55
2019-06-23 08:00:00 18.2 5 Sudeste 23 Sudeste 0 -- -- 64
2019-06-23 07:00:00 16.4 9 Sudeste 25 Sudeste 0 -- -- 69
2019-06-23 06:00:00 17.3 14 Sudeste 31 Sudeste 0 -- -- 67
2019-06-23 05:00:00 18 17 Sudeste 36 Sudeste 0 -- -- 64
2019-06-23 04:00:00 18.7 17 Sudeste 33 Sudeste 0 -- -- 64
2019-06-23 03:00:00 19.2 13 Sudeste 30 Sudeste 0 -- -- 62
2019-06-23 02:00:00 19.9 14 Sudeste 30 Sudeste 0 -- -- 59
2019-06-23 01:00:00 20.9 16 Sudeste 31 Sudeste 0 -- -- 59
2019-06-23 00:00:00 21.7 12 Sudeste 26 Sudeste 0 -- -- 52
2019-06-22 23:00:00 22.7 6 Sudeste 9 Sudeste 0 -- -- 29
2019-06-22 22:00:00 25.2 4 Sudoeste 13 Sur 0 -- -- 24
2019-06-22 21:00:00 27.7 5 Sur 23 Oeste 0 -- -- 21
2019-06-22 20:00:00 28.9 9 Sudoeste 26 Sudoeste 0 -- -- 20
2019-06-22 19:00:00 29.4 12 Sur 21 Sur 0 -- -- 18
2019-06-22 18:00:00 30.3 9 Sudoeste 32 Sudoeste 0 -- -- 19
2019-06-22 17:00:00 30.2 14 Sudoeste 30 Sudoeste 0 -- -- 21
2019-06-22 16:00:00 29.6 12 Sur 27 Oeste 0 -- -- 22
2019-06-22 15:00:00 29.2 12 Sur 31 Sur 0 -- -- 23
2019-06-22 14:00:00 28.1 12 Sudoeste 27 Sudoeste 0 -- -- 26
2019-06-22 13:00:00 26.5 10 Sur 26 Sur 0 -- -- 38
2019-06-22 12:00:00 24.4 16 Sudeste 32 Sudeste 0 -- -- 48
2019-06-22 11:00:00 22.1 16 Sudeste 36 Sudeste 0 -- -- 56
2019-06-22 10:00:00 20 18 Sudeste 36 Sudeste 0 -- -- 62
2019-06-22 09:00:00 18.2 19 Sudeste 38 Sudeste 0 -- -- 68
2019-06-22 08:00:00 16.9 12 Sudeste 26 Sudeste 0 -- -- 74
2019-06-22 07:00:00 13.7 5 Este 13 Este 0 -- -- 88
2019-06-22 06:00:00 13.9 2 Este 6 Este 0 -- -- 85
2019-06-22 05:00:00 14.4 3 Nordeste 18 Este 0 -- -- 83
2019-06-22 04:00:00 15.9 14 Este 25 Este -- -- -- 80
2019-06-22 03:00:00 16 9 Sudeste 22 Sudeste 0 -- -- 77
2019-06-22 02:00:00 15.8 6 Este 18 Este 0 -- -- 64
2019-06-22 01:00:00 17.3 12 Este 22 Este 0 -- -- 57
2019-06-22 00:00:00 18.4 9 Nordeste 18 Norte 0 -- -- 53
2019-06-21 23:00:00 20.4 10 Nordeste 19 Norte 0 -- -- 46
2019-06-21 22:00:00 23.5 4 Norte 14 Noroeste 0 -- -- 26
2019-06-21 21:00:00 26.8 11 Noroeste 22 Oeste 0 -- -- 22
2019-06-21 20:00:00 28.3 8 Oeste 22 Oeste 0 -- -- 21
2019-06-21 19:00:00 28.7 6 Sudoeste 26 Sudoeste 0 -- -- 20
2019-06-21 18:00:00 29.3 12 Noroeste 32 Oeste 0 -- -- 21
2019-06-21 17:00:00 28.6 10 Sudoeste 39 Oeste 0 -- -- 23
2019-06-21 16:00:00 28.3 9 Oeste 31 Oeste 0 -- -- 25
2019-06-21 15:00:00 27.8 11 Oeste 31 Noroeste 0 -- -- 25
2019-06-21 14:00:00 27.2 12 Oeste 32 Noroeste 0 -- -- 27
2019-06-21 13:00:00 26.2 10 Oeste 28 Oeste 0 -- -- 31
2019-06-21 12:00:00 24.9 11 Oeste 27 Oeste 0 -- -- 35
2019-06-21 11:00:00 23.9 9 Oeste 18 Oeste 0 -- -- 40
2019-06-21 10:00:00 22.6 2 Sur 7 Sur 0 -- -- 44
2019-06-21 09:00:00 20.1 0 Calma 5 Oeste 0 -- -- 49
2019-06-21 08:00:00 16.4 4 Este 9 Este 0 -- -- 59
2019-06-21 07:00:00 15.4 2 Oeste 8 Sudoeste 0 -- -- 61
2019-06-21 06:00:00 16.1 2 Oeste 12 Noroeste 0 -- -- 58
2019-06-21 05:00:00 16.7 0 Calma 5 Oeste 0 -- -- 55
2019-06-21 04:00:00 17.3 2 Noroeste 7 Noroeste 0 -- -- 53
2019-06-21 03:00:00 18.7 2 Oeste 8 Oeste 0 -- -- 49
2019-06-21 02:00:00 19.2 4 Oeste 11 Noroeste 0 -- -- 48
2019-06-21 01:00:00 19.8 3 Oeste 11 Oeste 0 -- -- 47
2019-06-21 00:00:00 20.6 7 Oeste 17 Oeste 0 -- -- 44
2019-06-20 23:00:00 21.5 4 Oeste 11 Oeste 0 -- -- 40
2019-06-20 22:00:00 23.2 5 Noroeste 13 Noroeste 0 -- -- 37
2019-06-20 21:00:00 25.4 12 Noroeste 20 Noroeste 0 -- -- 34
2019-06-20 20:00:00 26.2 8 Noroeste 21 Oeste 0 -- -- 33
2019-06-20 19:00:00 27.1 5 Este 25 Noroeste 0 -- -- 32
2019-06-20 18:00:00 27.4 12 Oeste 26 Noroeste 0 -- -- 31
2019-06-20 17:00:00 26.8 10 Noroeste 26 Noroeste 0 -- -- 32
2019-06-20 16:00:00 26.6 12 Oeste 26 Oeste 0 -- -- 33
2019-06-20 15:00:00 26.7 13 Oeste 30 Noroeste 0 -- -- 31
2019-06-20 14:00:00 26 10 Oeste 26 Oeste 0 -- -- 35
2019-06-20 13:00:00 25.2 8 Sudoeste 27 Sudoeste 0 -- -- 37
2019-06-20 12:00:00 24.9 12 Oeste 23 Noroeste 0 -- -- 38
2019-06-20 11:00:00 22.7 7 Oeste 18 Oeste 0 -- -- 45
2019-06-20 10:00:00 20.7 6 Sudoeste 13 Sudoeste 0 -- -- 49
2019-06-20 09:00:00 18.6 6 Sur 10 Sur 0 -- -- 54
2019-06-20 08:00:00 15.2 3 Sur 4 Sur 0 -- -- 60
2019-06-20 07:00:00 11.8 0 Calma 4 Este 0 -- -- 70
2019-06-20 06:00:00 13.5 2 Sur 7 Sudeste 0 -- -- 63
2019-06-20 05:00:00 14.1 3 Sur 7 Sur 0 -- -- 61
2019-06-20 04:00:00 15.5 3 Sudoeste 6 Sur 0 -- -- 59
2019-06-20 03:00:00 16 5 Sur 7 Sudeste 0 -- -- 57
2019-06-20 02:00:00 16.7 0 Calma 8 Noroeste 0 -- -- 54
2019-06-20 01:00:00 17.8 6 Noroeste 10 Noroeste 0 -- -- 52
2019-06-20 00:00:00 18.9 5 Noroeste 13 Noroeste 0 -- -- 49
2019-06-19 23:00:00 20.1 5 Noroeste 15 Oeste 0 -- -- 47
2019-06-19 22:00:00 21.9 10 Oeste 25 Oeste 0 -- -- 43
2019-06-19 21:00:00 24.2 13 Oeste 32 Oeste 0 -- -- 39
2019-06-19 20:00:00 26.6 14 Oeste 36 Oeste 0 -- -- 34
2019-06-19 19:00:00 27.2 15 Oeste 39 Oeste 0 -- -- 33
2019-06-19 18:00:00 27.7 17 Oeste 42 Oeste 0 -- -- 31
2019-06-19 17:00:00 28.3 14 Oeste 35 Oeste 0 -- -- 30
2019-06-19 16:00:00 27 14 Sudoeste 35 Oeste 0 -- -- 33
2019-06-19 15:00:00 25.7 15 Oeste 31 Sudoeste 0 -- -- 36
2019-06-19 14:00:00 24.6 10 Sudoeste 31 Sudoeste 0 -- -- 39
2019-06-19 13:00:00 23 12 Sudoeste 28 Sudoeste 0 -- -- 44
2019-06-19 12:00:00 21.8 12 Sudoeste 26 Oeste 0 -- -- 48
2019-06-19 11:00:00 21.5 11 Oeste 26 Noroeste 0 -- -- 51
2019-06-19 10:00:00 20.7 11 Oeste 23 Sudoeste 0 -- -- 50
2019-06-19 09:00:00 18.8 12 Oeste 22 Oeste 0 -- -- 54
2019-06-19 08:00:00 16.3 5 Oeste 10 Oeste 0 -- -- 64
2019-06-19 07:00:00 13.9 0 Calma 6 Oeste 0 -- -- 70
2019-06-19 06:00:00 13.9 3 Sur 6 Oeste 0 -- -- 65
2019-06-19 05:00:00 14.3 4 Oeste 9 Oeste 0 -- -- 61
2019-06-19 04:00:00 14.9 2 Sudeste 6 Sur 0 -- -- 55
2019-06-19 03:00:00 16.4 4 Sur 9 Sur 0 -- -- 53
2019-06-19 02:00:00 17.3 5 Sur 6 Sudeste 0 -- -- 50
2019-06-19 01:00:00 17.9 0 Calma 9 Oeste 0 -- -- 44
2019-06-19 00:00:00 19.7 5 Oeste 9 Oeste 0 -- -- 37
2019-06-18 23:00:00 21 5 Oeste 14 Oeste 0 -- -- 27
2019-06-18 22:00:00 23.5 9 Oeste 29 Oeste 0 -- -- 20
2019-06-18 21:00:00 26.9 16 Oeste 36 Oeste 0 -- -- 19
2019-06-18 20:00:00 28.4 13 Sudoeste 33 Sudoeste 0 -- -- 19
2019-06-18 19:00:00 29.4 17 Sudoeste 46 Sudoeste 0 -- -- 18
2019-06-18 18:00:00 29.7 17 Sudoeste 41 Sudoeste 0 -- -- 20
2019-06-18 17:00:00 29.7 17 Sudoeste 41 Sudoeste 0 -- -- 20
2019-06-18 16:00:00 29 14 Sudoeste 38 Sur 0 -- -- 23
2019-06-18 15:00:00 28.6 17 Sudoeste 41 Oeste 0 -- -- 22
2019-06-18 14:00:00 27.6 18 Sudoeste 36 Sur 0 -- -- 25
2019-06-18 13:00:00 26.8 17 Sudoeste 35 Sudoeste 0 -- -- 24
2019-06-18 12:00:00 26 12 Sudoeste 31 Oeste 0 -- -- 23
2019-06-18 11:00:00 25 9 Sudoeste 24 Sudoeste 0 -- -- 26
2019-06-18 10:00:00 22.9 9 Sur 17 Sur 0 -- -- 31
2019-06-18 09:00:00 20.2 10 Sudeste 14 Sudeste 0 -- -- 39
2019-06-18 08:00:00 17.1 5 Sur 9 Sur 0 -- -- 49
2019-06-18 07:00:00 15.4 5 Sur 16 Sudeste 0 -- -- 54
2019-06-18 06:00:00 16.2 6 Sur 23 Sudeste 0 -- -- 51
2019-06-18 05:00:00 17.2 10 Sudeste 21 Sudeste 0 -- -- 50
2019-06-18 04:00:00 17.5 8 Sudeste 21 Sudeste 0 -- -- 48
2019-06-18 03:00:00 18.9 7 Sudeste 15 Sudeste 0 -- -- 45
2019-06-18 02:00:00 19.5 4 Sur 17 Sudeste 0 -- -- 42
2019-06-18 01:00:00 20.1 6 Este 18 Sur 0 -- -- 39
2019-06-18 00:00:00 22.3 11 Sur 19 Sur 0 -- -- 33
2019-06-17 23:00:00 22 3 Sur 6 Sur 0 -- -- 28
2019-06-17 22:00:00 25 3 Sudeste 9 Sudoeste 0 -- -- 24
2019-06-17 21:00:00 27.3 5 Sudoeste 21 Sur 0 -- -- 20
2019-06-17 20:00:00 29.2 11 Sur 28 Sudoeste 0 -- -- 18
2019-06-17 19:00:00 29.6 10 Sur 30 Oeste 0 -- -- 19
2019-06-17 18:00:00 29.9 12 Sudoeste 26 Sudoeste 0 -- -- 20
2019-06-17 17:00:00 29.7 15 Sur 27 Sudoeste 0 -- -- 19
2019-06-17 16:00:00 29.5 14 Sur 36 Sur 0 -- -- 20
2019-06-17 15:00:00 28.8 12 Sudoeste 30 Sudoeste 0 -- -- 20
2019-06-17 14:00:00 28.3 10 Sudoeste 24 Sudoeste 0 -- -- 21
2019-06-17 13:00:00 27.5 11 Sur 22 Sur 0 -- -- 23
2019-06-17 12:00:00 27 4 Sur 12 Sur 0 -- -- 25
2019-06-17 11:00:00 24.5 6 Sur 13 Sudeste 0 -- -- 32
2019-06-17 10:00:00 21.4 6 Sudeste 10 Sudeste 0 -- -- 40
2019-06-17 09:00:00 17.9 3 Sudoeste 12 Sudeste 0 -- -- 57
2019-06-17 08:00:00 15 4 Sudeste 16 Sudeste 0 -- -- 68
2019-06-17 07:00:00 12.5 5 Sur 17 Sudeste 0 -- -- 78
2019-06-17 06:00:00 13.2 6 Sudeste 12 Sudeste 0 -- -- 75
2019-06-17 05:00:00 13.7 3 Sur 14 Sudeste 0 -- -- 73
2019-06-17 04:00:00 14.9 2 Noroeste 22 Sur 0 -- -- 70
2019-06-17 03:00:00 15.9 5 Sudeste 22 Este 0 -- -- 66
2019-06-17 02:00:00 16.8 6 Sudeste 22 Este 0 -- -- 63
2019-06-17 01:00:00 18.1 12 Sudeste 23 Sudeste 0 -- -- 54
2019-06-17 00:00:00 19.3 12 Sudeste 26 Sudeste 0 -- -- 37
2019-06-16 23:00:00 21.1 11 Sudeste 21 Sudeste 0 -- -- 32
2019-06-16 22:00:00 22.9 8 Sudeste 26 Sur 0 -- -- 29
2019-06-16 21:00:00 25.4 3 Sudeste 9 Sur 0 -- -- 22
2019-06-16 20:00:00 25.8 4 Sur 19 Sudoeste 0 -- -- 23
2019-06-16 19:00:00 26.2 11 Sur 25 Sur 0 -- -- 23
2019-06-16 18:00:00 26.6 12 Sur 28 Sudeste 0 -- -- 23
2019-06-16 17:00:00 28 9 Sudoeste 25 Sur 0 -- -- 24
2019-06-16 16:00:00 27.8 11 Sudeste 36 Sur 0 -- -- 24
2019-06-16 15:00:00 27 12 Sur 27 Sur 0 -- -- 26
2019-06-16 14:00:00 26.8 13 Sur 29 Sur 0 -- -- 28
2019-06-16 13:00:00 25.1 15 Sudeste 32 Sur 0 -- -- 32
2019-06-16 12:00:00 23.8 16 Sudeste 33 Sudeste 0 -- -- 33
2019-06-16 11:00:00 22.1 14 Sudeste 40 Sudeste 0 -- -- 34
2019-06-16 10:00:00 19.9 17 Sudeste 33 Sudeste 0 -- -- 37
2019-06-16 09:00:00 17.1 11 Sudeste 21 Este 0 -- -- 40
2019-06-16 08:00:00 11.2 6 Este 8 Este 0 -- -- 49
2019-06-16 07:00:00 7.6 4 Este 8 Nordeste 0 -- -- 53
2019-06-16 06:00:00 7.6 5 Nordeste 10 Este 0 -- -- 52
2019-06-16 05:00:00 8 6 Este 14 Norte 0 -- -- 51
2019-06-16 04:00:00 9.1 0 Calma 4 Sur 0 -- -- 45
2019-06-16 03:00:00 9.4 2 Sur 4 Sudeste 0 -- -- 45
2019-06-16 02:00:00 10.7 0 Calma 3 Nordeste 0 -- -- 44
2019-06-16 01:00:00 12.3 0 Calma 3 Norte 0 -- -- 40
2019-06-16 00:00:00 14.9 0 Calma 3 Este 0 -- -- 35
2019-06-15 23:00:00 17.1 3 Este 4 Oeste 0 -- -- 30
2019-06-15 22:00:00 20.6 2 Oeste 8 Oeste 0 -- -- 25
2019-06-15 21:00:00 23.7 5 Oeste 17 Noroeste 0 -- -- 22
2019-06-15 20:00:00 24.6 5 Oeste 22 Noroeste 0 -- -- 20
2019-06-15 19:00:00 25 9 Oeste 24 Oeste 0 -- -- 21
2019-06-15 18:00:00 24.9 8 Sudoeste 50 Noroeste 0 -- -- 23
2019-06-15 17:00:00 24.4 7 Oeste 22 Oeste 0 -- -- 23
2019-06-15 16:00:00 23.1 7 Sudoeste 23 Oeste 0 -- -- 23
2019-06-15 15:00:00 22.4 7 Sudoeste 30 Oeste 0 -- -- 26
2019-06-15 14:00:00 21.4 9 Oeste 23 Oeste 0 -- -- 29
2019-06-15 13:00:00 20.3 6 Sudoeste 23 Oeste 0 -- -- 33
2019-06-15 12:00:00 18.9 8 Sudoeste 21 Oeste 0 -- -- 37
2019-06-15 11:00:00 18 8 Oeste 20 Oeste 0 -- -- 40
2019-06-15 10:00:00 15.9 8 Oeste 15 Oeste 0 -- -- 46
2019-06-15 09:00:00 14 5 Oeste 11 Oeste 0 -- -- 54
2019-06-15 08:00:00 11.4 3 Sudoeste 9 Sudoeste 0 -- -- 64
2019-06-15 07:00:00 8.7 4 Oeste 15 Oeste 0 -- -- 70
2019-06-15 06:00:00 9.6 5 Oeste 14 Noroeste 0 -- -- 66
2019-06-15 05:00:00 10 3 Noroeste 22 Oeste 0 -- -- 61
2019-06-15 04:00:00 11 4 Oeste 18 Oeste 0 -- -- 55
2019-06-15 03:00:00 12 6 Oeste 22 Oeste 0 -- -- 50
2019-06-15 02:00:00 13.1 7 Oeste 22 Oeste 0 -- -- 47
2019-06-15 01:00:00 14.2 7 Oeste 26 Oeste 0 -- -- 44
2019-06-15 00:00:00 15.2 10 Oeste 21 Oeste 0 -- -- 37
2019-06-14 23:00:00 16.1 4 Oeste 29 Oeste 0 -- -- 35
2019-06-14 22:00:00 18.1 18 Oeste 31 Oeste 0 -- -- 31
2019-06-14 21:00:00 21.3 16 Oeste 39 Oeste 0 -- -- 26
2019-06-14 20:00:00 23.1 18 Sudoeste 39 Oeste 0 -- -- 22
2019-06-14 19:00:00 24.1 13 Sudoeste 40 Sudoeste 0 -- -- 23
2019-06-14 18:00:00 24.7 17 Sudoeste 38 Sudoeste 0 -- -- 22
2019-06-14 17:00:00 25.2 17 Sudoeste 39 Oeste 0 -- -- 22
2019-06-14 16:00:00 24.8 14 Sudoeste 40 Sudoeste 0 -- -- 22
2019-06-14 15:00:00 24.6 15 Sudoeste 36 Oeste 0 -- -- 23
2019-06-14 14:00:00 23.5 17 Sudoeste 38 Sudoeste 0 -- -- 28
2019-06-14 13:00:00 22.6 15 Sudoeste 41 Oeste 0 -- -- 33
2019-06-14 12:00:00 21.2 16 Sudoeste 37 Oeste 0 -- -- 38
2019-06-14 11:00:00 20.4 17 Oeste 32 Oeste 0 -- -- 36
2019-06-14 10:00:00 18.8 11 Oeste 35 Noroeste 0 -- -- 39
2019-06-14 09:00:00 16.8 10 Oeste 24 Oeste 0 -- -- 55
2019-06-14 08:00:00 13.6 3 Oeste 6 Sudoeste 0 -- -- 77
2019-06-14 07:00:00 13.4 3 Sudoeste 6 Sur 0 -- -- 79
2019-06-14 06:00:00 13.8 3 Sudeste 13 Sur 0 -- -- 78
2019-06-14 05:00:00 14.6 9 Sur 18 Sur 0 -- -- 76
2019-06-14 04:00:00 15.2 6 Sudeste 13 Sudeste 0 -- -- 73
2019-06-14 03:00:00 15.5 3 Sudeste 17 Sudeste 0 -- -- 72
2019-06-14 02:00:00 15.8 6 Sudeste 13 Sudeste 0 -- -- 70
2019-06-14 01:00:00 17 10 Sudeste 18 Sur 0 -- -- 65
2019-06-14 00:00:00 18.1 14 Sudeste 31 Sur 0 -- -- 60
2019-06-13 23:00:00 19 17 Sudeste 33 Sudeste 0 -- -- 58
2019-06-13 22:00:00 21 13 Sudeste 28 Sudeste 0 -- -- 48
2019-06-13 21:00:00 23.5 12 Sur 23 Sudeste 0 -- -- 39
2019-06-13 20:00:00 25.1 8 Sur 20 Sur 0 -- -- 33
2019-06-13 19:00:00 25.2 8 Sudoeste 30 Sur 0 -- -- 35
2019-06-13 18:00:00 23.6 18 Sudeste 30 Sur 0 -- -- 40
2019-06-13 17:00:00 24 14 Sur 27 Sur 0 -- -- 38
2019-06-13 16:00:00 25.1 14 Sur 39 Sudeste 0 -- -- 36
2019-06-13 15:00:00 23.1 18 Sudeste 35 Sur 0 -- -- 42
2019-06-13 14:00:00 23 18 Sudeste 39 Sur 0 -- -- 43
2019-06-13 13:00:00 21.7 23 Sudeste 45 Sudeste 0 -- -- 47
2019-06-13 12:00:00 20 23 Sudeste 39 Sur 0 -- -- 53
2019-06-13 11:00:00 19.7 19 Sudeste 43 Sudeste 0 -- -- 55
2019-06-13 10:00:00 17.5 23 Sudeste 47 Sudeste 0 -- -- 62
2019-06-13 09:00:00 15.4 23 Sudeste 45 Sudeste 0 -- -- 69
2019-06-13 08:00:00 13.5 17 Sudeste 40 Sudeste 0 -- -- 77
2019-06-13 07:00:00 12.1 20 Sudeste 39 Sudeste 0 -- -- 82
2019-06-13 06:00:00 12.2 20 Sudeste 40 Sudeste 0 -- -- 81
2019-06-13 05:00:00 12.4 19 Sudeste 41 Sudeste 0 -- -- 80
2019-06-13 04:00:00 11.6 18 Sudeste 37 Sudeste 0 -- -- 81
2019-06-13 03:00:00 11.9 19 Sudeste 39 Sudeste 0 -- -- 73
2019-06-13 02:00:00 13 18 Sudeste 38 Sudeste 0 -- -- 63
2019-06-13 01:00:00 14 20 Sudeste 39 Sudeste 0 -- -- 61
2019-06-13 00:00:00 15.3 19 Sudeste 42 Sudeste 0 -- -- 58
2019-06-12 23:00:00 17 22 Sudeste 36 Sudeste 0 -- -- 53
2019-06-12 22:00:00 19.6 3 Sur 12 Sudoeste 0 -- -- 23
2019-06-12 21:00:00 22.6 3 Sur 20 Sudoeste 0 -- -- 20
2019-06-12 20:00:00 23.6 9 Sudoeste 22 Oeste 0 -- -- 19
2019-06-12 19:00:00 24.1 9 Sudoeste 24 Sudoeste 0 -- -- 20
2019-06-12 18:00:00 23.8 9 Sudoeste 25 Sudoeste 0 -- -- 19
2019-06-12 17:00:00 24 8 Sudoeste 28 Oeste 0 -- -- 20
2019-06-12 16:00:00 23.6 8 Sur 29 Sudoeste 0 -- -- 22
2019-06-12 15:00:00 22.5 5 Sudoeste 33 Sur 0 -- -- 23
2019-06-12 14:00:00 21 6 Sudeste 24 Sur 0 -- -- 25
2019-06-12 13:00:00 19.5 8 Sudeste 24 Sur 0 -- -- 24
2019-06-12 12:00:00 18.8 11 Sur 24 Sur 0 -- -- 28
2019-06-12 11:00:00 17.6 12 Sudeste 28 Este 0 -- -- 36
2019-06-12 10:00:00 14.5 16 Sudeste 31 Sudeste 0 -- -- 46
2019-06-12 09:00:00 12.1 13 Sudeste 22 Sudeste 0 -- -- 51
2019-06-12 08:00:00 8.2 5 Este 8 Este 0 -- -- 61
2019-06-12 07:00:00 6 3 Sudeste 14 Sur 0 -- -- 67
2019-06-12 06:00:00 5.6 5 Sudeste 11 Sur 0 -- -- 68
2019-06-12 05:00:00 4.8 4 Sudeste 9 Sudeste 0 -- -- 69
2019-06-12 04:00:00 4.6 3 Este 10 Sudeste 0 -- -- 67
2019-06-12 03:00:00 5.7 5 Este 9 Este 0 -- -- 64
2019-06-12 02:00:00 7.3 4 Nordeste 12 Este 0 -- -- 57
2019-06-12 01:00:00 7.6 6 Nordeste 10 Nordeste 0 -- -- 52
2019-06-12 00:00:00 8.8 6 Nordeste 12 Nordeste 0 -- -- 44
2019-06-11 23:00:00 10.7 6 Nordeste 14 Nordeste 0 -- -- 37
2019-06-11 22:00:00 13.9 7 Nordeste 15 Norte 0 -- -- 32
2019-06-11 21:00:00 16.2 7 Nordeste 20 Norte 0 -- -- 31
2019-06-11 20:00:00 17.6 11 Norte 24 Norte 0 -- -- 29
2019-06-11 19:00:00 17.3 16 Nordeste 26 Norte 0 -- -- 31
2019-06-11 18:00:00 17.4 12 Norte 28 Nordeste 0 -- -- 35
2019-06-11 17:00:00 18.2 19 Norte 33 Nordeste 0 -- -- 34
2019-06-11 16:00:00 17.9 16 Norte 37 Norte 0 -- -- 37
2019-06-11 15:00:00 16.5 21 Norte 41 Norte 0 -- -- 42
2019-06-11 14:00:00 15.8 19 Nordeste 43 Norte 0 -- -- 47
2019-06-11 13:00:00 15.5 22 Norte 40 Norte 0 -- -- 49
2019-06-11 12:00:00 15.9 18 Norte 31 Norte 0 -- -- 47
2019-06-11 11:00:00 16.9 16 Norte 39 Norte 0 -- -- 45
2019-06-11 10:00:00 14.4 15 Norte 28 Norte 0 -- -- 51
2019-06-11 09:00:00 13.2 8 Nordeste 18 Norte 0 -- -- 55
2019-06-11 08:00:00 10.4 0 Calma 5 Oeste 0 -- -- 55
2019-06-11 07:00:00 8.3 0 Calma 3 Norte 0 -- -- 62
2019-06-11 06:00:00 8.3 0 Calma 6 Nordeste 0 -- -- 60
2019-06-11 05:00:00 9.6 0 Calma 2 Oeste 0 -- -- 56
2019-06-11 04:00:00 10.3 0 Calma 4 Sudeste 0 -- -- 53
2019-06-11 03:00:00 10.9 3 Este 11 Nordeste 0 -- -- 52
2019-06-11 02:00:00 12.3 6 Nordeste 12 Nordeste 0 -- -- 47
2019-06-11 01:00:00 13.7 8 Nordeste 16 Nordeste 0 -- -- 41
2019-06-11 00:00:00 14.9 3 Nordeste 6 Noroeste 0 -- -- 38
2019-06-10 23:00:00 17.3 4 Norte 12 Norte 0 -- -- 35
2019-06-10 22:00:00 20.4 0 Calma 15 Noroeste 0 -- -- 29
2019-06-10 21:00:00 23 13 Noroeste 30 Noroeste 0 -- -- 23
2019-06-10 20:00:00 24.5 20 Oeste 39 Sudoeste 0 -- -- 19
2019-06-10 19:00:00 25.6 13 Oeste 36 Oeste 0 -- -- 23
2019-06-10 18:00:00 25.5 15 Oeste 32 Oeste 0 -- -- 23
2019-06-10 17:00:00 25.3 12 Oeste 32 Noroeste 0 -- -- 23
2019-06-10 16:00:00 24.8 15 Oeste 36 Oeste 0 -- -- 25
2019-06-10 15:00:00 24.5 12 Oeste 29 Sudoeste 0 -- -- 27
2019-06-10 14:00:00 23.4 9 Oeste 27 Noroeste 0 -- -- 30
2019-06-10 13:00:00 22.9 11 Noroeste 25 Oeste 0 -- -- 30
2019-06-10 12:00:00 21.1 6 Nordeste 21 Nordeste 0 -- -- 34
2019-06-10 11:00:00 20 12 Nordeste 21 Norte 0 -- -- 41
2019-06-10 10:00:00 18.5 10 Norte 18 Norte 0 -- -- 49
2019-06-10 09:00:00 15.8 9 Nordeste 14 Nordeste 0 -- -- 61
2019-06-10 08:00:00 13.1 6 Nordeste 14 Norte 0 -- -- 68
2019-06-10 07:00:00 10.5 4 Norte 11 Norte 0 -- -- 72
2019-06-10 06:00:00 10.8 3 Nordeste 10 Nordeste 0 -- -- 65
2019-06-10 05:00:00 12.6 2 Noroeste 11 Noroeste 0 -- -- 51
2019-06-10 04:00:00 13.3 5 Oeste 12 Noroeste 0 -- -- 45
2019-06-10 03:00:00 14.1 7 Noroeste 14 Noroeste 0 -- -- 43
2019-06-10 02:00:00 14.8 7 Oeste 14 Oeste 0 -- -- 40
2019-06-10 01:00:00 15.9 7 Oeste 17 Oeste 0 -- -- 36
2019-06-10 00:00:00 16.8 8 Oeste 20 Oeste 0 -- -- 32
2019-06-09 23:00:00 18.1 5 Oeste 16 Sudoeste 0 -- -- 26
2019-06-09 22:00:00 20 8 Oeste 24 Oeste 0 -- -- 23
2019-06-09 21:00:00 23.8 10 Oeste 37 Sudoeste 0 -- -- 21
2019-06-09 20:00:00 25.3 16 Oeste 33 Oeste 0 -- -- 17
2019-06-09 19:00:00 26.4 17 Oeste 37 Oeste 0 -- -- 19
2019-06-09 18:00:00 27 14 Oeste 42 Oeste 0 -- -- 21
2019-06-09 17:00:00 26.6 9 Sudoeste 37 Sudoeste 0 -- -- 22
2019-06-09 16:00:00 26.1 9 Sudoeste 30 Oeste 0 -- -- 23
2019-06-09 15:00:00 24.7 12 Oeste 39 Oeste 0 -- -- 23
2019-06-09 14:00:00 25 13 Oeste 35 Sudoeste 0 -- -- 25
2019-06-09 13:00:00 24.1 9 Sudoeste 30 Oeste 0 -- -- 26
2019-06-09 12:00:00 23.1 13 Oeste 30 Oeste 0 -- -- 29
2019-06-09 11:00:00 21.7 10 Oeste 19 Oeste 0 -- -- 34
2019-06-09 10:00:00 19.3 4 Sudoeste 13 Sudeste 0 -- -- 48
2019-06-09 09:00:00 16.8 9 Sudeste 15 Sudeste 0 -- -- 54
2019-06-09 08:00:00 13.9 9 Sur 15 Sur 0 -- -- 61
2019-06-09 07:00:00 12.4 6 Sur 18 Sudeste 0 -- -- 64
2019-06-09 06:00:00 13.4 7 Sudeste 30 Sudeste 0 -- -- 60
2019-06-09 05:00:00 14.4 14 Sudeste 30 Sudeste 0 -- -- 57
2019-06-09 04:00:00 14.7 14 Sudeste 30 Sudeste 0 -- -- 56
2019-06-09 03:00:00 15 15 Sudeste 32 Sudeste 0 -- -- 55
2019-06-09 02:00:00 15.4 17 Sudeste 37 Sudeste 0 -- -- 54
2019-06-09 01:00:00 15.3 17 Sudeste 37 Sudeste 0 -- -- 55
2019-06-09 00:00:00 15.8 19 Sudeste 38 Sudeste 0 -- -- 53
2019-06-08 23:00:00 17.2 23 Sudeste 44 Sudeste 0 -- -- 51
2019-06-08 22:00:00 18.6 22 Sudeste 43 Este 0 -- -- 50
2019-06-08 21:00:00 20.7 22 Sudeste 49 Sudeste 0 -- -- 46
2019-06-08 20:00:00 22.4 22 Sudeste 46 Sudeste 0 -- -- 42
2019-06-08 19:00:00 23.9 24 Sudeste 42 Sudeste 0 -- -- 39
2019-06-08 18:00:00 24.4 23 Sudeste 43 Sudeste 0 -- -- 38
2019-06-08 17:00:00 24.8 24 Sudeste 44 Sudeste 0 -- -- 37
2019-06-08 16:00:00 24.8 21 Sudeste 45 Sur 0 -- -- 37
2019-06-08 15:00:00 24.6 24 Sur 51 Sudeste 0 -- -- 38
2019-06-08 14:00:00 23.9 22 Sudeste 47 Sudeste 0 -- -- 40
2019-06-08 13:00:00 22.1 28 Sudeste 50 Sudeste 0 -- -- 43
2019-06-08 12:00:00 21.4 29 Sudeste 51 Sudeste 0 -- -- 42
2019-06-08 11:00:00 20.1 30 Sudeste 61 Sudeste 0 -- -- 43
2019-06-08 10:00:00 18.7 23 Sudeste 44 Sudeste 0 -- -- 42
2019-06-08 09:00:00 16.1 11 Este 21 Este 0 -- -- 43
2019-06-08 08:00:00 10.7 7 Nordeste 12 Norte 0 -- -- 50
2019-06-08 07:00:00 8.4 4 Nordeste 11 Nordeste 0 -- -- 55
2019-06-08 06:00:00 7.4 8 Nordeste 13 Nordeste 0 -- -- 56
2019-06-08 05:00:00 8.5 9 Nordeste 17 Nordeste 0 -- -- 53
2019-06-08 04:00:00 8.7 8 Nordeste 13 Nordeste 0 -- -- 53
2019-06-08 03:00:00 9.2 5 Nordeste 13 Nordeste 0 -- -- 47
2019-06-08 02:00:00 9.1 5 Nordeste 9 Este 0 -- -- 44
2019-06-08 01:00:00 9.8 6 Este 12 Norte 0 -- -- 43
2019-06-08 00:00:00 10.6 0 Calma 6 Nordeste 0 -- -- 41
2019-06-07 23:00:00 13 2 Nordeste 5 Este 0 -- -- 36
2019-06-07 22:00:00 15.5 3 Norte 11 Noroeste 0 -- -- 31
2019-06-07 21:00:00 20.1 8 Noroeste 20 Noroeste 0 -- -- 23
2019-06-07 20:00:00 21.1 11 Oeste 20 Oeste 0 -- -- 23
2019-06-07 19:00:00 21.3 11 Oeste 27 Noroeste 0 -- -- 23
2019-06-07 18:00:00 21.3 9 Noroeste 29 Oeste 0 -- -- 22
2019-06-07 17:00:00 21.3 8 Oeste 29 Noroeste 0 -- -- 23
2019-06-07 16:00:00 20.3 12 Oeste 33 Noroeste 0 -- -- 26
2019-06-07 15:00:00 19.7 13 Oeste 31 Oeste 0 -- -- 26
2019-06-07 14:00:00 18.3 14 Noroeste 33 Noroeste 0 -- -- 29
2019-06-07 13:00:00 16.8 12 Noroeste 33 Noroeste 0 -- -- 34
2019-06-07 12:00:00 16 13 Noroeste 33 Noroeste 0 -- -- 37
2019-06-07 11:00:00 14.4 17 Noroeste 33 Oeste 0 -- -- 40
2019-06-07 10:00:00 12.7 22 Noroeste 36 Oeste 0 -- -- 55
2019-06-07 09:00:00 10.9 15 Oeste 36 Oeste 0 -- -- 69
2019-06-07 08:00:00 10.3 19 Oeste 37 Oeste 0 -- -- 75
2019-06-07 07:00:00 10.9 16 Oeste 39 Oeste 0 -- -- 80
2019-06-07 06:00:00 12.6 20 Oeste 38 Noroeste 0 -- -- 75
2019-06-07 05:00:00 13.3 15 Sudoeste 28 Sudoeste 0 -- -- 57
2019-06-07 04:00:00 13.7 8 Sudoeste 24 Sudoeste 0 -- -- 52
2019-06-07 03:00:00 13.9 9 Sudoeste 29 Sudoeste 0 -- -- 46
2019-06-07 02:00:00 15.1 17 Sudoeste 29 Sudoeste 0 -- -- 42
2019-06-07 01:00:00 15.6 6 Sudoeste 23 Sudoeste 0 -- -- 34
2019-06-07 00:00:00 17 11 Sudoeste 21 Sudoeste 0 -- -- 32
2019-06-06 23:00:00 18.2 7 Sur 23 Sudoeste 0 -- -- 31
2019-06-06 22:00:00 19.6 9 Sudoeste 27 Sudoeste 0 -- -- 29
2019-06-06 21:00:00 21.8 13 Sudoeste 40 Oeste 0 -- -- 26
2019-06-06 20:00:00 23.1 17 Sudoeste 44 Sudoeste 0 -- -- 24
2019-06-06 19:00:00 23.5 18 Sudoeste 41 Sudoeste 0 -- -- 23
2019-06-06 18:00:00 23.4 14 Sudoeste 38 Sudoeste 0 -- -- 23
2019-06-06 17:00:00 23.1 19 Sudoeste 42 Sur 0 -- -- 24
2019-06-06 16:00:00 22.7 17 Sur 37 Sudoeste 0 -- -- 24
2019-06-06 15:00:00 21.7 18 Sur 37 Sudoeste 0 -- -- 25
2019-06-06 14:00:00 20.2 13 Sur 32 Sudoeste 0 -- -- 29
2019-06-06 13:00:00 19.6 12 Sudoeste 28 Sudoeste 0 -- -- 32
2019-06-06 12:00:00 18.5 12 Sudoeste 30 Sur 0 -- -- 33
2019-06-06 11:00:00 17.6 10 Sur 24 Sur 0 -- -- 35
2019-06-06 10:00:00 16.2 8 Sur 15 Sur 0 -- -- 40
2019-06-06 09:00:00 13.6 4 Sur 8 Sudeste 0 -- -- 45
2019-06-06 08:00:00 10.2 3 Sudeste 8 Sudeste 0 -- -- 51
2019-06-06 07:00:00 7.3 3 Sudeste 6 Sur 0 -- -- 57
2019-06-06 06:00:00 8.5 3 Sur 6 Sur 0 -- -- 52
2019-06-06 05:00:00 8.9 3 Sur 9 Sudoeste 0 -- -- 51
2019-06-06 04:00:00 9.4 0 Calma 8 Sudoeste 0 -- -- 50
2019-06-06 03:00:00 10.3 5 Sur 8 Sudeste 0 -- -- 47
2019-06-06 02:00:00 11.2 0 Calma 8 Oeste 0 -- -- 46
2019-06-06 01:00:00 12 4 Oeste 12 Oeste 0 -- -- 43
2019-06-06 00:00:00 13.2 6 Noroeste 11 Oeste 0 -- -- 40
2019-06-05 23:00:00 14.4 4 Noroeste 8 Oeste 0 -- -- 35
2019-06-05 22:00:00 15.9 3 Oeste 12 Noroeste 0 -- -- 31
2019-06-05 21:00:00 18.2 8 Noroeste 35 Noroeste 0 -- -- 27
2019-06-05 20:00:00 19.9 11 Noroeste 33 Noroeste 0 -- -- 25
2019-06-05 19:00:00 20 16 Noroeste 33 Noroeste 0 -- -- 26
2019-06-05 18:00:00 20.7 17 Oeste 42 Oeste 0 -- -- 26
2019-06-05 17:00:00 19.9 20 Noroeste 50 Noroeste 0 -- -- 27
2019-06-05 16:00:00 19.8 21 Oeste 48 Oeste 0 -- -- 27
2019-06-05 15:00:00 19.6 24 Noroeste 48 Noroeste 0 -- -- 29
2019-06-05 14:00:00 18.1 29 Noroeste 52 Noroeste 0 -- -- 30
2019-06-05 13:00:00 17.1 29 Oeste 54 Noroeste 0 -- -- 35
2019-06-05 12:00:00 16.3 27 Oeste 50 Noroeste 0 -- -- 38
2019-06-05 11:00:00 15.4 23 Oeste 48 Oeste 0 -- -- 43
2019-06-05 10:00:00 13.6 18 Oeste 39 Oeste 0 -- -- 57
2019-06-05 09:00:00 11.5 20 Oeste 39 Sudoeste 0 -- -- 64
2019-06-05 08:00:00 10.8 19 Oeste 42 Oeste 0 -- -- 65
2019-06-05 07:00:00 11.7 17 Oeste 33 Oeste 0 -- -- 66
2019-06-05 06:00:00 12.9 11 Oeste 28 Oeste 0.4 -- -- 75
2019-06-05 05:00:00 14 13 Oeste 39 Oeste 0 -- -- 67
2019-06-05 04:00:00 14.5 11 Oeste 28 Sudoeste 0.4 -- -- 69
2019-06-05 03:00:00 16.3 13 Oeste 34 Oeste 0 -- -- 60
2019-06-05 02:00:00 17.8 13 Oeste 25 Oeste 0 -- -- 52
2019-06-05 01:00:00 18.3 5 Oeste 20 Noroeste 0 -- -- 50
2019-06-05 00:00:00 18.9 8 Oeste 17 Oeste 0 -- -- 48
2019-06-04 23:00:00 19.8 10 Oeste 22 Noroeste 0 -- -- 45
2019-06-04 22:00:00 21.7 8 Noroeste 31 Oeste 0 -- -- 39
2019-06-04 21:00:00 24.9 16 Oeste 37 Oeste 0 -- -- 30
2019-06-04 20:00:00 27 17 Oeste 41 Oeste 0 -- -- 28
2019-06-04 19:00:00 27.9 23 Sudoeste 45 Oeste 0 -- -- 28
2019-06-04 18:00:00 28 19 Sudoeste 40 Sudoeste 0 -- -- 27
2019-06-04 17:00:00 28.9 17 Sudoeste 40 Oeste 0 -- -- 26
2019-06-04 16:00:00 28.9 22 Sudoeste 49 Oeste 0 -- -- 25
2019-06-04 15:00:00 28.5 14 Sudoeste 41 Oeste 0 -- -- 27
2019-06-04 14:00:00 28.3 16 Sudoeste 40 Sudoeste 0 -- -- 25
2019-06-04 13:00:00 26.9 20 Sudoeste 42 Oeste 0 -- -- 27
2019-06-04 12:00:00 26.2 19 Sudoeste 37 Oeste 0 -- -- 29
2019-06-04 11:00:00 25 12 Sur 26 Sur 0 -- -- 32
2019-06-04 10:00:00 23 8 Sudeste 17 Sudeste 0 -- -- 40
2019-06-04 09:00:00 19.6 3 Oeste 9 Sudeste 0 -- -- 49
2019-06-04 08:00:00 16.2 4 Sudeste 7 Sur 0 -- -- 57
2019-06-04 07:00:00 13.2 4 Sur 6 Sur 0 -- -- 63
2019-06-04 06:00:00 13.7 0 Calma 5 Sur 0 -- -- 59
2019-06-04 05:00:00 14.8 0 Calma 7 Sur 0 -- -- 56
2019-06-04 04:00:00 16.4 6 Sur 16 Sudeste 0 -- -- 51
2019-06-04 03:00:00 17.4 4 Sudeste 10 Sur 0 -- -- 42
2019-06-04 02:00:00 18.9 7 Sudeste 24 Sudeste 0 -- -- 34
2019-06-04 01:00:00 20.3 12 Sudeste 23 Sudeste 0 -- -- 30
2019-06-04 00:00:00 20.7 2 Sur 5 Sudeste 0 -- -- 31
2019-06-03 23:00:00 23.4 3 Noroeste 8 Oeste 0 -- -- 25
2019-06-03 22:00:00 25.8 4 Oeste 18 Oeste 0 -- -- 21
2019-06-03 21:00:00 29.2 -- -- -- -- -- -- -- --
2019-06-03 20:00:00 31 14 Oeste 37 Oeste 0 -- -- 17
2019-06-03 19:00:00 31.9 13 Sudoeste 33 Oeste 0 -- -- 17
2019-06-03 18:00:00 32.5 11 Sudoeste 38 Oeste 0 -- -- 16
2019-06-03 17:00:00 32.7 18 Oeste 39 Oeste 0 -- -- 16
2019-06-03 16:00:00 32.7 15 Oeste 32 Oeste 0 -- -- 16
2019-06-03 15:00:00 31.5 18 Oeste 35 Oeste 0 -- -- 18
2019-06-03 14:00:00 31 14 Sudoeste 30 Oeste 0 -- -- 19
2019-06-03 13:00:00 29.9 10 Oeste 24 Sudoeste 0 -- -- 20
2019-06-03 12:00:00 26.9 7 Sudoeste 15 Sudeste 0 -- -- 26
2019-06-03 11:00:00 24.7 6 Sur 19 Sur 0 -- -- 30
2019-06-03 10:00:00 22.4 10 Sur 18 Sur 0 -- -- 34
2019-06-03 09:00:00 18.6 10 Sudeste 17 Sudeste 0 -- -- 41
2019-06-03 08:00:00 17.3 8 Sudeste 18 Sudeste 0 -- -- 43
2019-06-03 07:00:00 16.1 10 Sudeste 18 Sur 0 -- -- 44
2019-06-03 06:00:00 16.8 10 Sudeste 18 Sudeste 0 -- -- 43
2019-06-03 05:00:00 17.5 10 Sur 29 Sudeste 0 -- -- 41
2019-06-03 04:00:00 18.2 13 Sudeste 31 Sudeste 0 -- -- 40
2019-06-03 03:00:00 18.9 13 Sudeste 33 Sudeste 0 -- -- 39
2019-06-03 02:00:00 19.6 15 Sudeste 32 Sudeste 0 -- -- 39
2019-06-03 01:00:00 20.5 15 Sudeste 30 Sudeste 0 -- -- 38
2019-06-03 00:00:00 21.3 12 Sudeste 24 Sudeste 0 -- -- 33
2019-06-02 23:00:00 22.8 0 Calma 5 Sur 0 -- -- 32
2019-06-02 22:00:00 25.7 4 Sur 6 Sur 0 -- -- 26
2019-06-02 21:00:00 29.2 4 Sudoeste 17 Oeste 0 -- -- 21
2019-06-02 20:00:00 32 8 Oeste 22 Oeste 0 -- -- 18
2019-06-02 19:00:00 32.1 10 Sudoeste 20 Oeste 0 -- -- 17
2019-06-02 18:00:00 32.9 12 Oeste 23 Sudoeste 0 -- -- 17
2019-06-02 17:00:00 32.8 9 Noroeste 35 Noroeste 0 -- -- 18
2019-06-02 16:00:00 32.3 4 Sur 27 Oeste 0 -- -- 19
2019-06-02 15:00:00 31.7 8 Oeste 22 Sudoeste 0 -- -- 19
2019-06-02 14:00:00 31.2 10 Oeste 32 Oeste 0 -- -- 21
2019-06-02 13:00:00 29.2 9 Oeste 19 Sudoeste 0 -- -- 22
2019-06-02 12:00:00 27.4 8 Sur 19 Sudeste 0 -- -- 24
2019-06-02 11:00:00 25.1 9 Sur 19 Sur 0 -- -- 29
2019-06-02 10:00:00 21.8 10 Sudeste 20 Sudeste 0 -- -- 35
2019-06-02 09:00:00 18.5 10 Sudeste 20 Sudeste 0 -- -- 40
2019-06-02 08:00:00 15.6 7 Sudeste 15 Sudeste 0 -- -- 44
2019-06-02 07:00:00 13.5 8 Sudeste 17 Sudeste 0 -- -- 49
2019-06-02 06:00:00 14 8 Sur 15 Sur 0 -- -- 48
2019-06-02 05:00:00 14.9 7 Sur 28 Sudeste 0 -- -- 46
2019-06-02 04:00:00 15.8 17 Sudeste 32 Sudeste 0 -- -- 44
2019-06-02 03:00:00 16.3 14 Sudeste 35 Sudeste 0 -- -- 44
2019-06-02 02:00:00 17.4 18 Sudeste 35 Sudeste 0 -- -- 43
2019-06-02 01:00:00 18.6 15 Sudeste 28 Sudeste 0 -- -- 42
2019-06-02 00:00:00 20.1 14 Sudeste 27 Sudeste 0 -- -- 36
2019-06-01 23:00:00 22.1 6 Sudeste 13 Sur 0 -- -- 29
2019-06-01 22:00:00 25.1 6 Sur 19 Sur 0 -- -- 26
2019-06-01 21:00:00 29.8 4 Oeste 13 Sudoeste 0 -- -- 21
2019-06-01 20:00:00 30.7 4 Norte 19 Oeste 0 -- -- 21
2019-06-01 19:00:00 30.8 2 Sur 20 Noroeste 0 -- -- 21
2019-06-01 18:00:00 31.7 10 Oeste 22 Noroeste 0 -- -- 20
2019-06-01 17:00:00 30.9 7 Este 19 Norte 0 -- -- 21
2019-06-01 16:00:00 30.6 6 Sudeste 20 Noroeste 0 -- -- 20
2019-06-01 15:00:00 29.2 7 Sur 16 Sudeste 0 -- -- 24
2019-06-01 14:00:00 28.1 10 Sudoeste 17 Sur 0 -- -- 25
2019-06-01 13:00:00 27 6 Sudoeste 22 Sur 0 -- -- 29
2019-06-01 12:00:00 25.2 9 Sudeste 23 Sudeste 0 -- -- 32
2019-06-01 11:00:00 23.2 14 Sudeste 26 Sudeste 0 -- -- 37
2019-06-01 10:00:00 20.4 15 Sudeste 30 Sudeste 0 -- -- 42
2019-06-01 09:00:00 17.9 10 Sudeste 24 Sudeste 0 -- -- 47
2019-06-01 08:00:00 14.7 3 Sur 11 Sudeste 0 -- -- 53
2019-06-01 07:00:00 11.8 0 Calma 12 Sudeste 0 -- -- 62
2019-06-01 06:00:00 12.5 3 Nordeste 10 Sudeste 0 -- -- 60
2019-06-01 05:00:00 13.4 2 Sudeste 25 Sudeste 0 -- -- 58
2019-06-01 04:00:00 14.2 11 Sudeste 27 Sudeste 0 -- -- 55
2019-06-01 03:00:00 15 14 Sudeste 28 Sudeste 0 -- -- 54
2019-06-01 02:00:00 16 16 Sudeste 27 Sudeste 0 -- -- 54
2019-06-01 01:00:00 17.5 16 Sudeste 35 Sudeste 0 -- -- 51
2019-06-01 00:00:00 19 13 Sudeste 25 Sudeste 0 -- -- 41
2019-05-31 23:00:00 20.5 7 Sudeste 12 Sudeste 0 -- -- 35
2019-05-31 22:00:00 23.1 7 Sur 15 Sur 0 -- -- 29
2019-05-31 21:00:00 26.6 6 Sur 19 Sur 0 -- -- 25
2019-05-31 20:00:00 29.5 6 Sudoeste 12 Sur 0 -- -- 21
2019-05-31 19:00:00 29.6 6 Norte 17 Nordeste 0 -- -- 17
2019-05-31 18:00:00 29.5 12 Nordeste 18 Nordeste 0 -- -- 17
2019-05-31 17:00:00 29.1 10 Norte 29 Noroeste 0 -- -- 19
2019-05-31 16:00:00 28.4 8 Norte 21 Nordeste 0 -- -- 21
2019-05-31 15:00:00 28.1 6 Sudeste 17 Noroeste 0 -- -- 25
2019-05-31 14:00:00 27.1 8 Este 18 Este 0 -- -- 27
2019-05-31 13:00:00 25.9 5 Sur 18 Sudeste 0 -- -- 29
2019-05-31 12:00:00 24.6 7 Sudeste 19 Este 0 -- -- 33
2019-05-31 11:00:00 22.9 9 Sudeste 25 Este 0 -- -- 37
2019-05-31 10:00:00 20.4 10 Sudeste 19 Este 0 -- -- 45
2019-05-31 09:00:00 17.5 10 Este 17 Este 0 -- -- 51
2019-05-31 08:00:00 13.4 2 Este 10 Este 0 -- -- 63
2019-05-31 07:00:00 9.7 2 Este 11 Este 0 -- -- 73
2019-05-31 06:00:00 10.1 6 Este 8 Este 0 -- -- 69
2019-05-31 05:00:00 10.3 4 Nordeste 10 Este 0 -- -- 68
2019-05-31 04:00:00 13.4 4 Este 11 Sudeste 0 -- -- 58
2019-05-31 03:00:00 13.7 5 Este 23 Sudeste 0 -- -- 56
2019-05-31 02:00:00 15.9 13 Sudeste 31 Sudeste 0 -- -- 49
2019-05-31 01:00:00 17.6 14 Sudeste 27 Sudeste 0 -- -- 43
2019-05-31 00:00:00 17.7 11 Sudeste 20 Sudeste 0 -- -- 41
2019-05-30 23:00:00 19.1 11 Nordeste 21 Nordeste 0 -- -- 30
2019-05-30 22:00:00 22.1 12 Norte 18 Nordeste 0 -- -- 24
2019-05-30 21:00:00 26 6 Norte 18 Nordeste 0 -- -- 25
2019-05-30 20:00:00 27.2 7 Nordeste 19 Nordeste 0 -- -- 24
2019-05-30 19:00:00 27.7 6 Nordeste 21 Nordeste 0 -- -- 23
2019-05-30 18:00:00 27.8 9 Norte 26 Nordeste 0 -- -- 23
2019-05-30 17:00:00 27.1 8 Norte 25 Oeste 0 -- -- 23
2019-05-30 16:00:00 26.3 8 Norte 19 Nordeste 0 -- -- 25
2019-05-30 15:00:00 25.4 4 Sudeste 17 Sudeste 0 -- -- 28
2019-05-30 14:00:00 23.8 7 Nordeste 18 Sur 0 -- -- 29
2019-05-30 13:00:00 22.5 5 Este 21 Sur 0 -- -- 32
2019-05-30 12:00:00 20.8 9 Sudeste 20 Este 0 -- -- 36
2019-05-30 11:00:00 19 9 Sudeste 16 Sudeste 0 -- -- 41
2019-05-30 10:00:00 16.2 8 Nordeste 14 Nordeste 0 -- -- 49
2019-05-30 09:00:00 13.6 5 Nordeste 15 Norte 0 -- -- 57
2019-05-30 08:00:00 10 4 Nordeste 6 Nordeste 0 -- -- 68
2019-05-30 07:00:00 7 4 Nordeste 8 Este 0 -- -- 76
2019-05-30 06:00:00 8.6 5 Noroeste 8 Noroeste 0 -- -- 70
2019-05-30 05:00:00 9.7 3 Sudeste 19 Nordeste 0 -- -- 66
2019-05-30 04:00:00 10.6 11 Nordeste 18 Nordeste 0 -- -- 63
2019-05-30 03:00:00 10.6 6 Nordeste 15 Norte 0 -- -- 62
2019-05-30 02:00:00 12.4 8 Norte 20 Nordeste 0 -- -- 56
2019-05-30 01:00:00 12.8 12 Nordeste 22 Nordeste 0 -- -- 55
2019-05-30 00:00:00 13 4 Nordeste 17 Norte 0 -- -- 52
2019-05-29 23:00:00 15.7 9 Nordeste 22 Norte 0 -- -- 43
2019-05-29 22:00:00 17.7 12 Nordeste 22 Nordeste 0 -- -- 37
2019-05-29 21:00:00 20.5 14 Nordeste 32 Nordeste 0 -- -- 36
2019-05-29 20:00:00 22.1 17 Nordeste 35 Nordeste 0 -- -- 34
2019-05-29 19:00:00 22.9 14 Norte 35 Nordeste 0 -- -- 33
2019-05-29 18:00:00 22.6 19 Norte 38 Nordeste 0 -- -- 33
2019-05-29 17:00:00 22.6 18 Norte 41 Nordeste 0 -- -- 33
2019-05-29 16:00:00 21.8 20 Norte 35 Norte 0 -- -- 34
2019-05-29 15:00:00 20.7 17 Norte 33 Norte 0 -- -- 37
2019-05-29 14:00:00 19.2 21 Nordeste 40 Norte 0 -- -- 38
2019-05-29 13:00:00 18.1 20 Norte 40 Norte 0 -- -- 40
2019-05-29 12:00:00 17.2 18 Norte 39 Nordeste 0 -- -- 40
2019-05-29 11:00:00 15.3 26 Nordeste 44 Nordeste 0 -- -- 43
2019-05-29 10:00:00 13.2 30 Nordeste 48 Nordeste 0 -- -- 48
2019-05-29 09:00:00 11.2 26 Nordeste 43 Nordeste 0 -- -- 54
2019-05-29 08:00:00 9.1 16 Nordeste 33 Nordeste 0 -- -- 59
2019-05-29 07:00:00 7.3 10 Nordeste 22 Nordeste 0 -- -- 64
2019-05-29 06:00:00 7 11 Nordeste 33 Nordeste 0 -- -- 67
2019-05-29 05:00:00 7.9 17 Nordeste 36 Nordeste 0 -- -- 65
2019-05-29 04:00:00 7.7 16 Nordeste 29 Nordeste 0 -- -- 66
2019-05-29 03:00:00 9.2 8 Norte 21 Nordeste 0 -- -- 60
2019-05-29 02:00:00 9.9 12 Nordeste 27 Nordeste 0 -- -- 58
2019-05-29 01:00:00 11.4 3 Nordeste 16 Nordeste 0 -- -- 55
2019-05-29 00:00:00 13.2 6 Norte 25 Norte 0 -- -- 50
2019-05-28 23:00:00 15.1 18 Nordeste 32 Nordeste 0 -- -- 45
2019-05-28 22:00:00 17.1 14 Nordeste 37 Norte 0 -- -- 41
2019-05-28 21:00:00 20.2 21 Norte 37 Norte 0 -- -- 35
2019-05-28 20:00:00 22.6 12 Nordeste 31 Norte 0 -- -- 25
2019-05-28 19:00:00 23.6 12 Noroeste 30 Norte 0 -- -- 24
2019-05-28 18:00:00 23.4 14 Norte 28 Norte 0 -- -- 25
2019-05-28 17:00:00 23.2 18 Nordeste 36 Nordeste 0 -- -- 25
2019-05-28 16:00:00 23 15 Norte 33 Nordeste 0 -- -- 25
2019-05-28 15:00:00 22.8 18 Nordeste 35 Norte 0 -- -- 26
2019-05-28 14:00:00 21.7 17 Nordeste 36 Nordeste 0 -- -- 24
2019-05-28 13:00:00 20.3 17 Norte 34 Nordeste 0 -- -- 29
2019-05-28 12:00:00 19.4 12 Norte 25 Nordeste 0 -- -- 33
2019-05-28 11:00:00 17.7 12 Norte 23 Norte 0 -- -- 41
2019-05-28 10:00:00 15.7 13 Norte 24 Norte 0 -- -- 46
2019-05-28 09:00:00 13.7 10 Nordeste 19 Nordeste 0 -- -- 62
2019-05-28 08:00:00 11.5 9 Nordeste 15 Nordeste 0 -- -- 74
2019-05-28 07:00:00 9.4 7 Nordeste 17 Nordeste 0 -- -- 83
2019-05-28 06:00:00 9.8 10 Nordeste 18 Nordeste 0 -- -- 82
2019-05-28 05:00:00 10.5 10 Nordeste 15 Nordeste 0 -- -- 80
2019-05-28 04:00:00 11.2 7 Nordeste 15 Nordeste 0 -- -- 75
2019-05-28 03:00:00 12.5 7 Nordeste 19 Norte 0 -- -- 69
2019-05-28 02:00:00 13.5 13 Nordeste 32 Norte 0 -- -- 66
2019-05-28 01:00:00 14.8 15 Norte 30 Nordeste 0 -- -- 63
2019-05-28 00:00:00 16.4 13 Nordeste 26 Nordeste 0 -- -- 58
2019-05-27 23:00:00 18.3 13 Nordeste 33 Norte 0 -- -- 51
2019-05-27 22:00:00 20.9 14 Nordeste 25 Nordeste 0 -- -- 42
2019-05-27 21:00:00 23.8 10 Noroeste 23 Noroeste 0 -- -- 32
2019-05-27 20:00:00 25.3 14 Noroeste 27 Norte 0 -- -- 27
2019-05-27 19:00:00 25.7 18 Noroeste 36 Noroeste 0 -- -- 27
2019-05-27 18:00:00 26.9 16 Noroeste 33 Noroeste 0 -- -- 27
2019-05-27 17:00:00 25.9 10 Norte 32 Norte 0 -- -- 28
2019-05-27 16:00:00 26.3 16 Noroeste 40 Noroeste 0 -- -- 27
2019-05-27 15:00:00 25.4 17 Norte 41 Noroeste 0 -- -- 28
2019-05-27 14:00:00 24.9 8 Noroeste 29 Oeste 0 -- -- 31
2019-05-27 13:00:00 23.1 12 Norte 24 Noroeste 0 -- -- 33
2019-05-27 12:00:00 21.4 14 Nordeste 25 Nordeste 0 -- -- 37
2019-05-27 11:00:00 19.5 12 Norte 23 Norte 0 -- -- 43
2019-05-27 10:00:00 17.2 11 Norte 18 Nordeste 0 -- -- 50
2019-05-27 09:00:00 14.3 7 Norte 12 Norte 0 -- -- 59
2019-05-27 08:00:00 12 8 Norte 16 Nordeste 0 -- -- 65
2019-05-27 07:00:00 7.4 6 Nordeste 11 Nordeste 0 -- -- 80
2019-05-27 06:00:00 8.2 4 Este 9 Oeste 0 -- -- 73
2019-05-27 05:00:00 8.9 5 Este 9 Este 0 -- -- 69
2019-05-27 04:00:00 11 4 Sudeste 10 Nordeste 0 -- -- 61
2019-05-27 03:00:00 11.3 5 Nordeste 14 Nordeste 0 -- -- 59
2019-05-27 02:00:00 12.8 7 Nordeste 15 Norte 0 -- -- 53
2019-05-27 01:00:00 13.8 8 Nordeste 17 Nordeste 0 -- -- 49
2019-05-27 00:00:00 14.3 7 Nordeste 20 Nordeste 0 -- -- 47